sensor_id;sensor_type;location;lat;lon;timestamp;P1;durP1;ratioP1;P2;durP2;ratioP2
5171;SDS011;2605;49.770;9.868;2023-06-14T00:00:30;6.27;;;5.67;;
5171;SDS011;2605;49.770;9.868;2023-06-14T00:02:56;7.67;;;6.13;;
5171;SDS011;2605;49.770;9.868;2023-06-14T00:05:23;6.97;;;6.27;;
5171;SDS011;2605;49.770;9.868;2023-06-14T00:07:49;7.70;;;7.00;;
5171;SDS011;2605;49.770;9.868;2023-06-14T00:10:18;6.60;;;5.97;;
5171;SDS011;2605;49.770;9.868;2023-06-14T00:12:43;7.90;;;6.20;;
5171;SDS011;2605;49.770;9.868;2023-06-14T00:15:09;6.97;;;6.27;;
5171;SDS011;2605;49.770;9.868;2023-06-14T00:17:35;7.10;;;5.80;;
5171;SDS011;2605;49.770;9.868;2023-06-14T00:20:01;6.77;;;6.17;;
5171;SDS011;2605;49.770;9.868;2023-06-14T00:22:31;8.50;;;6.40;;
5171;SDS011;2605;49.770;9.868;2023-06-14T00:24:57;8.60;;;6.00;;
5171;SDS011;2605;49.770;9.868;2023-06-14T00:27:23;7.30;;;6.20;;
5171;SDS011;2605;49.770;9.868;2023-06-14T00:29:49;6.07;;;5.60;;
5171;SDS011;2605;49.770;9.868;2023-06-14T00:32:15;6.33;;;5.80;;
5171;SDS011;2605;49.770;9.868;2023-06-14T00:34:40;8.20;;;6.43;;
5171;SDS011;2605;49.770;9.868;2023-06-14T00:37:06;6.40;;;5.80;;
5171;SDS011;2605;49.770;9.868;2023-06-14T00:39:31;5.87;;;5.37;;
5171;SDS011;2605;49.770;9.868;2023-06-14T00:41:57;7.27;;;6.57;;
5171;SDS011;2605;49.770;9.868;2023-06-14T00:44:24;6.20;;;5.70;;
5171;SDS011;2605;49.770;9.868;2023-06-14T00:46:49;6.63;;;5.93;;
5171;SDS011;2605;49.770;9.868;2023-06-14T00:49:15;13.10;;;6.63;;
5171;SDS011;2605;49.770;9.868;2023-06-14T00:51:42;7.00;;;5.47;;
5171;SDS011;2605;49.770;9.868;2023-06-14T00:54:08;8.10;;;6.27;;
5171;SDS011;2605;49.770;9.868;2023-06-14T00:56:37;6.50;;;5.23;;
5171;SDS011;2605;49.770;9.868;2023-06-14T00:59:03;7.33;;;6.73;;
5171;SDS011;2605;49.770;9.868;2023-06-14T01:01:29;7.10;;;6.50;;
5171;SDS011;2605;49.770;9.868;2023-06-14T01:03:57;8.50;;;6.23;;
5171;SDS011;2605;49.770;9.868;2023-06-14T01:06:28;6.90;;;6.20;;
5171;SDS011;2605;49.770;9.868;2023-06-14T01:09:07;7.10;;;5.43;;
5171;SDS011;2605;49.770;9.868;2023-06-14T01:12:04;8.40;;;6.10;;
5171;SDS011;2605;49.770;9.868;2023-06-14T01:14:36;10.90;;;6.13;;
5171;SDS011;2605;49.770;9.868;2023-06-14T01:17:04;9.03;;;7.03;;
5171;SDS011;2605;49.770;9.868;2023-06-14T01:19:30;10.80;;;6.80;;
5171;SDS011;2605;49.770;9.868;2023-06-14T01:21:56;7.60;;;6.90;;
5171;SDS011;2605;49.770;9.868;2023-06-14T01:24:24;6.40;;;5.87;;
5171;SDS011;2605;49.770;9.868;2023-06-14T01:26:50;7.97;;;6.37;;
5171;SDS011;2605;49.770;9.868;2023-06-14T01:29:20;7.27;;;6.57;;
5171;SDS011;2605;49.770;9.868;2023-06-14T01:31:48;6.70;;;6.10;;
5171;SDS011;2605;49.770;9.868;2023-06-14T01:34:15;13.03;;;7.60;;
5171;SDS011;2605;49.770;9.868;2023-06-14T01:36:40;7.43;;;6.10;;
5171;SDS011;2605;49.770;9.868;2023-06-14T01:39:08;6.30;;;5.67;;
5171;SDS011;2605;49.770;9.868;2023-06-14T01:41:37;8.63;;;6.00;;
5171;SDS011;2605;49.770;9.868;2023-06-14T01:44:03;7.40;;;6.50;;
5171;SDS011;2605;49.770;9.868;2023-06-14T01:46:29;7.20;;;5.90;;
5171;SDS011;2605;49.770;9.868;2023-06-14T01:48:55;9.13;;;6.63;;
5171;SDS011;2605;49.770;9.868;2023-06-14T01:51:21;6.93;;;6.23;;
5171;SDS011;2605;49.770;9.868;2023-06-14T01:53:46;6.10;;;5.40;;
5171;SDS011;2605;49.770;9.868;2023-06-14T01:56:13;6.77;;;6.07;;
5171;SDS011;2605;49.770;9.868;2023-06-14T01:58:39;9.83;;;6.40;;
5171;SDS011;2605;49.770;9.868;2023-06-14T02:01:05;5.83;;;5.33;;
5171;SDS011;2605;49.770;9.868;2023-06-14T02:03:32;13.00;;;5.90;;
5171;SDS011;2605;49.770;9.868;2023-06-14T02:05:57;10.70;;;6.40;;
5171;SDS011;2605;49.770;9.868;2023-06-14T02:08:23;5.67;;;5.17;;
5171;SDS011;2605;49.770;9.868;2023-06-14T02:10:49;7.83;;;6.57;;
5171;SDS011;2605;49.770;9.868;2023-06-14T02:13:14;6.80;;;5.90;;
5171;SDS011;2605;49.770;9.868;2023-06-14T02:15:40;7.07;;;6.37;;
5171;SDS011;2605;49.770;9.868;2023-06-14T02:18:08;6.53;;;5.90;;
5171;SDS011;2605;49.770;9.868;2023-06-14T02:20:35;9.13;;;6.07;;
5171;SDS011;2605;49.770;9.868;2023-06-14T02:23:00;7.13;;;6.40;;
5171;SDS011;2605;49.770;9.868;2023-06-14T02:25:26;7.33;;;6.63;;
5171;SDS011;2605;49.770;9.868;2023-06-14T02:27:53;6.00;;;5.50;;
5171;SDS011;2605;49.770;9.868;2023-06-14T02:30:19;7.37;;;6.50;;
5171;SDS011;2605;49.770;9.868;2023-06-14T02:32:45;6.00;;;5.50;;
5171;SDS011;2605;49.770;9.868;2023-06-14T02:35:13;11.77;;;6.67;;
5171;SDS011;2605;49.770;9.868;2023-06-14T02:37:39;6.40;;;5.90;;
5171;SDS011;2605;49.770;9.868;2023-06-14T02:40:05;6.17;;;5.60;;
5171;SDS011;2605;49.770;9.868;2023-06-14T02:42:32;6.33;;;5.73;;
5171;SDS011;2605;49.770;9.868;2023-06-14T02:44:57;6.83;;;5.97;;
5171;SDS011;2605;49.770;9.868;2023-06-14T02:47:23;6.60;;;6.00;;
5171;SDS011;2605;49.770;9.868;2023-06-14T02:49:49;7.23;;;6.63;;
5171;SDS011;2605;49.770;9.868;2023-06-14T02:52:15;6.33;;;5.60;;
5171;SDS011;2605;49.770;9.868;2023-06-14T02:54:40;6.80;;;6.20;;
5171;SDS011;2605;49.770;9.868;2023-06-14T02:57:06;9.50;;;6.30;;
5171;SDS011;2605;49.770;9.868;2023-06-14T02:59:32;5.77;;;5.37;;
5171;SDS011;2605;49.770;9.868;2023-06-14T03:01:58;7.27;;;6.60;;
5171;SDS011;2605;49.770;9.868;2023-06-14T03:04:24;6.60;;;6.00;;
5171;SDS011;2605;49.770;9.868;2023-06-14T03:06:50;8.43;;;6.50;;
5171;SDS011;2605;49.770;9.868;2023-06-14T03:09:16;10.67;;;6.90;;
5171;SDS011;2605;49.770;9.868;2023-06-14T03:11:42;7.63;;;6.87;;
5171;SDS011;2605;49.770;9.868;2023-06-14T03:14:07;8.00;;;6.30;;
5171;SDS011;2605;49.770;9.868;2023-06-14T03:16:33;13.50;;;7.00;;
5171;SDS011;2605;49.770;9.868;2023-06-14T03:18:59;6.50;;;6.00;;
5171;SDS011;2605;49.770;9.868;2023-06-14T03:21:24;9.40;;;6.90;;
5171;SDS011;2605;49.770;9.868;2023-06-14T03:23:51;8.30;;;5.80;;
5171;SDS011;2605;49.770;9.868;2023-06-14T03:26:17;7.37;;;6.00;;
5171;SDS011;2605;49.770;9.868;2023-06-14T03:28:46;11.63;;;6.83;;
5171;SDS011;2605;49.770;9.868;2023-06-14T03:31:12;13.07;;;6.67;;
5171;SDS011;2605;49.770;9.868;2023-06-14T03:33:38;8.33;;;6.10;;
5171;SDS011;2605;49.770;9.868;2023-06-14T03:36:05;8.93;;;6.97;;
5171;SDS011;2605;49.770;9.868;2023-06-14T03:38:31;8.97;;;6.80;;
5171;SDS011;2605;49.770;9.868;2023-06-14T03:40:57;10.13;;;7.03;;
5171;SDS011;2605;49.770;9.868;2023-06-14T03:43:23;8.00;;;7.20;;
5171;SDS011;2605;49.770;9.868;2023-06-14T03:45:48;8.97;;;6.87;;
5171;SDS011;2605;49.770;9.868;2023-06-14T03:48:14;8.10;;;6.33;;
5171;SDS011;2605;49.770;9.868;2023-06-14T03:50:39;12.30;;;6.93;;
5171;SDS011;2605;49.770;9.868;2023-06-14T03:53:05;7.63;;;6.60;;
5171;SDS011;2605;49.770;9.868;2023-06-14T03:55:31;7.83;;;6.70;;
5171;SDS011;2605;49.770;9.868;2023-06-14T03:57:58;7.67;;;6.30;;
5171;SDS011;2605;49.770;9.868;2023-06-14T04:00:23;7.83;;;6.63;;
5171;SDS011;2605;49.770;9.868;2023-06-14T04:02:49;10.17;;;5.53;;
5171;SDS011;2605;49.770;9.868;2023-06-14T04:05:14;6.70;;;6.13;;
5171;SDS011;2605;49.770;9.868;2023-06-14T04:07:41;7.50;;;6.70;;
5171;SDS011;2605;49.770;9.868;2023-06-14T04:10:09;8.60;;;5.90;;
5171;SDS011;2605;49.770;9.868;2023-06-14T04:12:36;6.47;;;5.77;;
5171;SDS011;2605;49.770;9.868;2023-06-14T04:15:01;7.83;;;6.70;;
5171;SDS011;2605;49.770;9.868;2023-06-14T04:17:27;8.90;;;6.87;;
5171;SDS011;2605;49.770;9.868;2023-06-14T04:19:53;7.77;;;6.20;;
5171;SDS011;2605;49.770;9.868;2023-06-14T04:22:18;7.57;;;6.87;;
5171;SDS011;2605;49.770;9.868;2023-06-14T04:24:44;5.70;;;5.20;;
5171;SDS011;2605;49.770;9.868;2023-06-14T04:27:10;6.03;;;5.53;;
5171;SDS011;2605;49.770;9.868;2023-06-14T04:29:35;6.87;;;6.17;;
5171;SDS011;2605;49.770;9.868;2023-06-14T04:32:01;7.37;;;6.40;;
5171;SDS011;2605;49.770;9.868;2023-06-14T04:34:27;15.70;;;7.00;;
5171;SDS011;2605;49.770;9.868;2023-06-14T04:36:58;10.63;;;6.67;;
5171;SDS011;2605;49.770;9.868;2023-06-14T04:39:26;9.07;;;6.40;;
5171;SDS011;2605;49.770;9.868;2023-06-14T04:41:52;8.47;;;6.90;;
5171;SDS011;2605;49.770;9.868;2023-06-14T04:44:21;6.27;;;5.67;;
5171;SDS011;2605;49.770;9.868;2023-06-14T04:46:55;11.90;;;6.30;;
5171;SDS011;2605;49.770;9.868;2023-06-14T04:49:21;17.30;;;7.60;;
5171;SDS011;2605;49.770;9.868;2023-06-14T04:51:48;6.73;;;6.13;;
5171;SDS011;2605;49.770;9.868;2023-06-14T04:54:22;6.53;;;5.80;;
5171;SDS011;2605;49.770;9.868;2023-06-14T04:56:50;11.70;;;6.60;;
5171;SDS011;2605;49.770;9.868;2023-06-14T04:59:15;9.10;;;5.33;;
5171;SDS011;2605;49.770;9.868;2023-06-14T05:01:42;6.93;;;6.37;;
5171;SDS011;2605;49.770;9.868;2023-06-14T05:04:13;7.73;;;6.10;;
5171;SDS011;2605;49.770;9.868;2023-06-14T05:06:40;8.20;;;6.53;;
5171;SDS011;2605;49.770;9.868;2023-06-14T05:09:06;7.67;;;6.30;;
5171;SDS011;2605;49.770;9.868;2023-06-14T05:11:32;7.00;;;6.40;;
5171;SDS011;2605;49.770;9.868;2023-06-14T05:13:57;8.70;;;6.13;;
5171;SDS011;2605;49.770;9.868;2023-06-14T05:16:23;6.30;;;5.70;;
5171;SDS011;2605;49.770;9.868;2023-06-14T05:18:50;6.90;;;6.20;;
5171;SDS011;2605;49.770;9.868;2023-06-14T05:21:17;6.60;;;6.03;;
5171;SDS011;2605;49.770;9.868;2023-06-14T05:23:43;8.57;;;6.80;;
5171;SDS011;2605;49.770;9.868;2023-06-14T05:26:09;8.13;;;6.77;;
5171;SDS011;2605;49.770;9.868;2023-06-14T05:28:35;10.30;;;6.03;;
5171;SDS011;2605;49.770;9.868;2023-06-14T05:31:01;7.13;;;6.43;;
5171;SDS011;2605;49.770;9.868;2023-06-14T05:33:27;10.47;;;6.30;;
5171;SDS011;2605;49.770;9.868;2023-06-14T05:35:52;7.17;;;6.47;;
5171;SDS011;2605;49.770;9.868;2023-06-14T05:38:17;6.47;;;5.87;;
5171;SDS011;2605;49.770;9.868;2023-06-14T05:40:43;6.60;;;6.00;;
5171;SDS011;2605;49.770;9.868;2023-06-14T05:43:08;7.47;;;6.40;;
5171;SDS011;2605;49.770;9.868;2023-06-14T05:45:35;14.03;;;6.57;;
5171;SDS011;2605;49.770;9.868;2023-06-14T05:48:00;8.37;;;6.23;;
5171;SDS011;2605;49.770;9.868;2023-06-14T05:50:26;6.20;;;5.70;;
5171;SDS011;2605;49.770;9.868;2023-06-14T05:52:52;8.93;;;6.53;;
5171;SDS011;2605;49.770;9.868;2023-06-14T05:55:18;9.10;;;6.20;;
5171;SDS011;2605;49.770;9.868;2023-06-14T05:57:44;10.27;;;7.00;;
5171;SDS011;2605;49.770;9.868;2023-06-14T06:00:10;8.80;;;6.47;;
5171;SDS011;2605;49.770;9.868;2023-06-14T06:02:39;9.20;;;8.00;;
5171;SDS011;2605;49.770;9.868;2023-06-14T06:05:08;7.03;;;6.40;;
5171;SDS011;2605;49.770;9.868;2023-06-14T06:07:34;8.87;;;6.60;;
5171;SDS011;2605;49.770;9.868;2023-06-14T06:10:01;7.57;;;6.70;;
5171;SDS011;2605;49.770;9.868;2023-06-14T06:12:26;6.53;;;5.80;;
5171;SDS011;2605;49.770;9.868;2023-06-14T06:14:52;7.40;;;6.70;;
5171;SDS011;2605;49.770;9.868;2023-06-14T06:17:17;7.60;;;6.40;;
5171;SDS011;2605;49.770;9.868;2023-06-14T06:19:43;8.10;;;7.30;;
5171;SDS011;2605;49.770;9.868;2023-06-14T06:22:09;6.43;;;5.83;;
5171;SDS011;2605;49.770;9.868;2023-06-14T06:24:34;7.33;;;6.20;;
5171;SDS011;2605;49.770;9.868;2023-06-14T06:26:59;6.57;;;5.60;;
5171;SDS011;2605;49.770;9.868;2023-06-14T06:29:25;8.77;;;7.13;;
5171;SDS011;2605;49.770;9.868;2023-06-14T06:31:51;7.03;;;6.37;;
5171;SDS011;2605;49.770;9.868;2023-06-14T06:34:16;7.93;;;6.87;;
5171;SDS011;2605;49.770;9.868;2023-06-14T06:36:42;9.90;;;6.80;;
5171;SDS011;2605;49.770;9.868;2023-06-14T06:39:07;7.10;;;6.40;;
5171;SDS011;2605;49.770;9.868;2023-06-14T06:41:35;7.70;;;7.00;;
5171;SDS011;2605;49.770;9.868;2023-06-14T06:44:04;8.37;;;6.83;;
5171;SDS011;2605;49.770;9.868;2023-06-14T06:46:30;8.57;;;6.10;;
5171;SDS011;2605;49.770;9.868;2023-06-14T06:48:56;8.57;;;7.60;;
5171;SDS011;2605;49.770;9.868;2023-06-14T06:51:22;6.90;;;6.30;;
5171;SDS011;2605;49.770;9.868;2023-06-14T06:53:52;7.53;;;6.90;;
5171;SDS011;2605;49.770;9.868;2023-06-14T06:56:19;6.90;;;5.93;;
5171;SDS011;2605;49.770;9.868;2023-06-14T06:58:44;6.87;;;6.37;;
5171;SDS011;2605;49.770;9.868;2023-06-14T07:01:10;8.40;;;7.30;;
5171;SDS011;2605;49.770;9.868;2023-06-14T07:03:36;6.40;;;5.80;;
5171;SDS011;2605;49.770;9.868;2023-06-14T07:06:02;7.07;;;6.37;;
5171;SDS011;2605;49.770;9.868;2023-06-14T07:08:27;7.87;;;6.97;;
5171;SDS011;2605;49.770;9.868;2023-06-14T07:10:53;7.03;;;6.33;;
5171;SDS011;2605;49.770;9.868;2023-06-14T07:13:19;11.83;;;6.90;;
5171;SDS011;2605;49.770;9.868;2023-06-14T07:15:45;6.33;;;5.83;;
5171;SDS011;2605;49.770;9.868;2023-06-14T07:18:10;7.70;;;6.07;;
5171;SDS011;2605;49.770;9.868;2023-06-14T07:20:36;7.17;;;6.53;;
5171;SDS011;2605;49.770;9.868;2023-06-14T07:23:03;8.53;;;6.47;;
5171;SDS011;2605;49.770;9.868;2023-06-14T07:25:29;6.50;;;5.90;;
5171;SDS011;2605;49.770;9.868;2023-06-14T07:27:54;7.17;;;6.60;;
5171;SDS011;2605;49.770;9.868;2023-06-14T07:30:20;7.00;;;6.30;;
5171;SDS011;2605;49.770;9.868;2023-06-14T07:32:46;6.80;;;6.30;;
5171;SDS011;2605;49.770;9.868;2023-06-14T07:35:11;7.40;;;6.30;;
5171;SDS011;2605;49.770;9.868;2023-06-14T07:37:37;6.70;;;6.10;;
5171;SDS011;2605;49.770;9.868;2023-06-14T07:40:02;6.93;;;6.20;;
5171;SDS011;2605;49.770;9.868;2023-06-14T07:42:32;7.17;;;6.40;;
5171;SDS011;2605;49.770;9.868;2023-06-14T07:44:59;7.30;;;6.60;;
5171;SDS011;2605;49.770;9.868;2023-06-14T07:47:24;7.63;;;6.63;;
5171;SDS011;2605;49.770;9.868;2023-06-14T07:49:50;6.60;;;6.00;;
5171;SDS011;2605;49.770;9.868;2023-06-14T07:52:15;7.40;;;6.70;;
5171;SDS011;2605;49.770;9.868;2023-06-14T07:54:41;7.97;;;7.20;;
5171;SDS011;2605;49.770;9.868;2023-06-14T07:57:06;6.33;;;5.70;;
5171;SDS011;2605;49.770;9.868;2023-06-14T07:59:32;7.00;;;6.40;;
5171;SDS011;2605;49.770;9.868;2023-06-14T08:01:58;7.10;;;6.40;;
5171;SDS011;2605;49.770;9.868;2023-06-14T08:04:23;6.73;;;6.20;;
5171;SDS011;2605;49.770;9.868;2023-06-14T08:06:50;6.90;;;6.40;;
5171;SDS011;2605;49.770;9.868;2023-06-14T08:09:15;7.23;;;6.40;;
5171;SDS011;2605;49.770;9.868;2023-06-14T08:11:41;7.80;;;7.00;;
5171;SDS011;2605;49.770;9.868;2023-06-14T08:14:07;7.17;;;6.47;;
5171;SDS011;2605;49.770;9.868;2023-06-14T08:16:33;8.63;;;6.33;;
5171;SDS011;2605;49.770;9.868;2023-06-14T08:18:58;8.47;;;7.20;;
5171;SDS011;2605;49.770;9.868;2023-06-14T08:21:24;9.07;;;6.27;;
5171;SDS011;2605;49.770;9.868;2023-06-14T08:23:53;6.93;;;6.23;;
5171;SDS011;2605;49.770;9.868;2023-06-14T08:26:19;7.80;;;6.63;;
5171;SDS011;2605;49.770;9.868;2023-06-14T08:28:45;7.60;;;6.90;;
5171;SDS011;2605;49.770;9.868;2023-06-14T08:31:11;6.70;;;6.20;;
5171;SDS011;2605;49.770;9.868;2023-06-14T08:33:37;5.97;;;5.47;;
5171;SDS011;2605;49.770;9.868;2023-06-14T08:36:04;6.87;;;6.27;;
5171;SDS011;2605;49.770;9.868;2023-06-14T08:38:29;8.67;;;6.10;;
5171;SDS011;2605;49.770;9.868;2023-06-14T08:40:57;7.63;;;6.93;;
5171;SDS011;2605;49.770;9.868;2023-06-14T08:43:23;7.37;;;6.67;;
5171;SDS011;2605;49.770;9.868;2023-06-14T08:45:48;7.47;;;6.40;;
5171;SDS011;2605;49.770;9.868;2023-06-14T08:48:18;8.00;;;6.30;;
5171;SDS011;2605;49.770;9.868;2023-06-14T08:50:46;6.63;;;6.03;;
5171;SDS011;2605;49.770;9.868;2023-06-14T08:53:13;14.53;;;6.80;;
5171;SDS011;2605;49.770;9.868;2023-06-14T08:55:45;7.47;;;6.77;;
5171;SDS011;2605;49.770;9.868;2023-06-14T08:58:12;9.87;;;7.37;;
5171;SDS011;2605;49.770;9.868;2023-06-14T09:00:39;11.17;;;6.90;;
5171;SDS011;2605;49.770;9.868;2023-06-14T09:03:06;6.20;;;5.70;;
5171;SDS011;2605;49.770;9.868;2023-06-14T09:05:38;6.20;;;5.70;;
5171;SDS011;2605;49.770;9.868;2023-06-14T09:08:03;8.70;;;5.73;;
5171;SDS011;2605;49.770;9.868;2023-06-14T09:10:30;7.00;;;6.30;;
5171;SDS011;2605;49.770;9.868;2023-06-14T09:12:58;12.23;;;6.33;;
5171;SDS011;2605;49.770;9.868;2023-06-14T09:15:25;6.63;;;6.00;;
5171;SDS011;2605;49.770;9.868;2023-06-14T09:17:51;6.10;;;5.60;;
5171;SDS011;2605;49.770;9.868;2023-06-14T09:20:16;11.67;;;6.40;;
5171;SDS011;2605;49.770;9.868;2023-06-14T09:22:45;10.00;;;5.40;;
5171;SDS011;2605;49.770;9.868;2023-06-14T09:25:10;5.73;;;5.23;;
5171;SDS011;2605;49.770;9.868;2023-06-14T09:27:40;5.90;;;5.40;;
5171;SDS011;2605;49.770;9.868;2023-06-14T09:30:08;10.90;;;5.10;;
5171;SDS011;2605;49.770;9.868;2023-06-14T09:32:38;7.03;;;5.70;;
5171;SDS011;2605;49.770;9.868;2023-06-14T09:35:07;5.50;;;5.03;;
5171;SDS011;2605;49.770;9.868;2023-06-14T09:37:33;6.10;;;4.83;;
5171;SDS011;2605;49.770;9.868;2023-06-14T09:40:00;5.40;;;4.90;;
5171;SDS011;2605;49.770;9.868;2023-06-14T09:42:26;6.00;;;5.00;;
5171;SDS011;2605;49.770;9.868;2023-06-14T09:44:53;4.97;;;4.60;;
5171;SDS011;2605;49.770;9.868;2023-06-14T09:47:21;5.20;;;4.80;;
5171;SDS011;2605;49.770;9.868;2023-06-14T09:49:48;10.10;;;5.23;;
5171;SDS011;2605;49.770;9.868;2023-06-14T09:52:18;8.20;;;5.60;;
5171;SDS011;2605;49.770;9.868;2023-06-14T09:54:45;5.30;;;4.70;;
5171;SDS011;2605;49.770;9.868;2023-06-14T09:57:13;5.63;;;4.83;;
5171;SDS011;2605;49.770;9.868;2023-06-14T09:59:41;5.93;;;5.43;;
5171;SDS011;2605;49.770;9.868;2023-06-14T10:02:31;5.10;;;4.63;;
5171;SDS011;2605;49.770;9.868;2023-06-14T10:05:03;4.93;;;4.63;;
5171;SDS011;2605;49.770;9.868;2023-06-14T10:07:51;5.70;;;5.30;;
5171;SDS011;2605;49.770;9.868;2023-06-14T10:10:20;4.60;;;4.20;;
5171;SDS011;2605;49.770;9.868;2023-06-14T10:12:46;5.33;;;4.50;;
5171;SDS011;2605;49.770;9.868;2023-06-14T10:15:20;4.20;;;3.97;;
5171;SDS011;2605;49.770;9.868;2023-06-14T10:17:55;5.30;;;4.90;;
5171;SDS011;2605;49.770;9.868;2023-06-14T10:20:33;7.63;;;5.17;;
5171;SDS011;2605;49.770;9.868;2023-06-14T10:23:16;6.07;;;4.73;;
5171;SDS011;2605;49.770;9.868;2023-06-14T10:25:44;4.87;;;4.47;;
5171;SDS011;2605;49.770;9.868;2023-06-14T10:28:17;7.67;;;4.43;;
5171;SDS011;2605;49.770;9.868;2023-06-14T10:33:32;4.70;;;4.40;;
5171;SDS011;2605;49.770;9.868;2023-06-14T10:36:09;7.17;;;4.60;;
5171;SDS011;2605;49.770;9.868;2023-06-14T10:38:36;4.60;;;4.20;;
5171;SDS011;2605;49.770;9.868;2023-06-14T10:41:03;5.43;;;4.93;;
5171;SDS011;2605;49.770;9.868;2023-06-14T10:43:29;4.80;;;4.40;;
5171;SDS011;2605;49.770;9.868;2023-06-14T10:48:44;4.10;;;3.80;;
5171;SDS011;2605;49.770;9.868;2023-06-14T10:51:16;4.80;;;4.40;;
5171;SDS011;2605;49.770;9.868;2023-06-14T10:53:46;4.67;;;4.27;;
5171;SDS011;2605;49.770;9.868;2023-06-14T10:56:34;5.67;;;5.17;;
5171;SDS011;2605;49.770;9.868;2023-06-14T10:58:59;4.63;;;4.33;;
5171;SDS011;2605;49.770;9.868;2023-06-14T11:01:28;7.30;;;5.40;;
5171;SDS011;2605;49.770;9.868;2023-06-14T11:04:09;4.53;;;4.13;;
5171;SDS011;2605;49.770;9.868;2023-06-14T11:06:46;5.33;;;4.40;;
5171;SDS011;2605;49.770;9.868;2023-06-14T11:09:20;4.40;;;4.10;;
5171;SDS011;2605;49.770;9.868;2023-06-14T11:11:52;5.40;;;4.90;;
5171;SDS011;2605;49.770;9.868;2023-06-14T11:14:21;4.43;;;4.13;;
5171;SDS011;2605;49.770;9.868;2023-06-14T11:16:49;5.17;;;4.77;;
5171;SDS011;2605;49.770;9.868;2023-06-14T11:19:15;8.67;;;4.53;;
5171;SDS011;2605;49.770;9.868;2023-06-14T11:21:42;5.17;;;4.77;;
5171;SDS011;2605;49.770;9.868;2023-06-14T11:24:10;4.13;;;3.83;;
5171;SDS011;2605;49.770;9.868;2023-06-14T11:26:37;5.40;;;4.77;;
5171;SDS011;2605;49.770;9.868;2023-06-14T11:29:03;4.30;;;3.60;;
5171;SDS011;2605;49.770;9.868;2023-06-14T11:31:28;4.57;;;4.17;;
5171;SDS011;2605;49.770;9.868;2023-06-14T11:33:55;4.87;;;4.37;;
5171;SDS011;2605;49.770;9.868;2023-06-14T11:36:21;4.37;;;4.07;;
5171;SDS011;2605;49.770;9.868;2023-06-14T11:38:48;4.23;;;3.93;;
5171;SDS011;2605;49.770;9.868;2023-06-14T11:41:14;3.77;;;3.50;;
5171;SDS011;2605;49.770;9.868;2023-06-14T11:43:39;4.23;;;3.83;;
5171;SDS011;2605;49.770;9.868;2023-06-14T11:46:11;4.90;;;4.20;;
5171;SDS011;2605;49.770;9.868;2023-06-14T11:48:40;4.70;;;3.63;;
5171;SDS011;2605;49.770;9.868;2023-06-14T11:51:07;4.00;;;3.70;;
5171;SDS011;2605;49.770;9.868;2023-06-14T11:53:33;4.03;;;3.73;;
5171;SDS011;2605;49.770;9.868;2023-06-14T11:55:59;5.10;;;4.70;;
5171;SDS011;2605;49.770;9.868;2023-06-14T11:58:25;4.27;;;3.97;;
5171;SDS011;2605;49.770;9.868;2023-06-14T12:00:52;4.47;;;4.10;;
5171;SDS011;2605;49.770;9.868;2023-06-14T12:03:22;4.50;;;4.10;;
5171;SDS011;2605;49.770;9.868;2023-06-14T12:05:48;4.17;;;3.77;;
5171;SDS011;2605;49.770;9.868;2023-06-14T12:08:14;5.80;;;4.13;;
5171;SDS011;2605;49.770;9.868;2023-06-14T12:10:42;10.13;;;4.07;;
5171;SDS011;2605;49.770;9.868;2023-06-14T12:13:08;4.00;;;3.70;;
5171;SDS011;2605;49.770;9.868;2023-06-14T12:15:34;4.20;;;3.90;;
5171;SDS011;2605;49.770;9.868;2023-06-14T12:18:00;5.60;;;4.17;;
5171;SDS011;2605;49.770;9.868;2023-06-14T12:20:29;7.13;;;4.80;;
5171;SDS011;2605;49.770;9.868;2023-06-14T12:22:56;4.00;;;3.70;;
5171;SDS011;2605;49.770;9.868;2023-06-14T12:25:24;4.13;;;3.73;;
5171;SDS011;2605;49.770;9.868;2023-06-14T12:27:54;3.97;;;3.57;;
5171;SDS011;2605;49.770;9.868;2023-06-14T12:30:20;3.70;;;3.40;;
5171;SDS011;2605;49.770;9.868;2023-06-14T12:32:45;4.80;;;3.80;;
5171;SDS011;2605;49.770;9.868;2023-06-14T12:35:11;3.97;;;3.77;;
5171;SDS011;2605;49.770;9.868;2023-06-14T12:37:36;4.77;;;4.17;;
5171;SDS011;2605;49.770;9.868;2023-06-14T12:40:03;3.77;;;3.27;;
5171;SDS011;2605;49.770;9.868;2023-06-14T12:42:30;3.90;;;3.60;;
5171;SDS011;2605;49.770;9.868;2023-06-14T12:44:56;4.83;;;4.27;;
5171;SDS011;2605;49.770;9.868;2023-06-14T12:47:22;4.07;;;3.73;;
5171;SDS011;2605;49.770;9.868;2023-06-14T12:49:47;8.40;;;4.07;;
5171;SDS011;2605;49.770;9.868;2023-06-14T12:52:16;3.50;;;3.20;;
5171;SDS011;2605;49.770;9.868;2023-06-14T12:54:41;4.90;;;4.07;;
5171;SDS011;2605;49.770;9.868;2023-06-14T12:57:07;3.70;;;3.30;;
5171;SDS011;2605;49.770;9.868;2023-06-14T12:59:33;3.67;;;3.47;;
5171;SDS011;2605;49.770;9.868;2023-06-14T13:02:14;4.07;;;3.87;;
5171;SDS011;2605;49.770;9.868;2023-06-14T13:04:42;4.37;;;3.53;;
5171;SDS011;2605;49.770;9.868;2023-06-14T13:07:08;3.80;;;3.60;;
5171;SDS011;2605;49.770;9.868;2023-06-14T13:09:35;3.93;;;3.63;;
5171;SDS011;2605;49.770;9.868;2023-06-14T13:12:01;4.00;;;3.70;;
5171;SDS011;2605;49.770;9.868;2023-06-14T13:14:26;4.10;;;3.70;;
5171;SDS011;2605;49.770;9.868;2023-06-14T13:16:52;2.97;;;2.77;;
5171;SDS011;2605;49.770;9.868;2023-06-14T13:19:17;3.40;;;3.20;;
5171;SDS011;2605;49.770;9.868;2023-06-14T13:21:43;3.80;;;3.40;;
5171;SDS011;2605;49.770;9.868;2023-06-14T13:24:08;4.23;;;3.57;;
5171;SDS011;2605;49.770;9.868;2023-06-14T13:26:37;4.17;;;3.87;;
5171;SDS011;2605;49.770;9.868;2023-06-14T13:29:02;3.40;;;3.20;;
5171;SDS011;2605;49.770;9.868;2023-06-14T13:31:28;4.73;;;3.40;;
5171;SDS011;2605;49.770;9.868;2023-06-14T13:33:54;6.00;;;3.43;;
5171;SDS011;2605;49.770;9.868;2023-06-14T13:36:19;3.60;;;3.40;;
5171;SDS011;2605;49.770;9.868;2023-06-14T13:38:45;3.70;;;3.40;;
5171;SDS011;2605;49.770;9.868;2023-06-14T13:41:10;3.80;;;3.50;;
5171;SDS011;2605;49.770;9.868;2023-06-14T13:43:36;3.17;;;3.07;;
5171;SDS011;2605;49.770;9.868;2023-06-14T13:46:01;3.93;;;3.63;;
5171;SDS011;2605;49.770;9.868;2023-06-14T13:48:27;4.00;;;3.63;;
5171;SDS011;2605;49.770;9.868;2023-06-14T13:50:52;3.90;;;3.60;;
5171;SDS011;2605;49.770;9.868;2023-06-14T13:53:18;4.30;;;3.17;;
5171;SDS011;2605;49.770;9.868;2023-06-14T13:55:43;3.50;;;3.20;;
5171;SDS011;2605;49.770;9.868;2023-06-14T13:58:09;3.53;;;3.33;;
5171;SDS011;2605;49.770;9.868;2023-06-14T14:00:35;5.70;;;3.90;;
5171;SDS011;2605;49.770;9.868;2023-06-14T14:03:05;6.17;;;3.37;;
5171;SDS011;2605;49.770;9.868;2023-06-14T14:05:31;4.17;;;3.77;;
5171;SDS011;2605;49.770;9.868;2023-06-14T14:07:56;6.83;;;3.17;;
5171;SDS011;2605;49.770;9.868;2023-06-14T14:10:22;3.47;;;3.27;;
5171;SDS011;2605;49.770;9.868;2023-06-14T14:12:49;3.47;;;3.27;;
5171;SDS011;2605;49.770;9.868;2023-06-14T14:15:19;3.37;;;3.17;;
5171;SDS011;2605;49.770;9.868;2023-06-14T14:17:45;3.63;;;3.33;;
5171;SDS011;2605;49.770;9.868;2023-06-14T14:20:12;3.50;;;3.20;;
5171;SDS011;2605;49.770;9.868;2023-06-14T14:22:40;4.17;;;3.87;;
5171;SDS011;2605;49.770;9.868;2023-06-14T14:25:06;3.40;;;3.13;;
5171;SDS011;2605;49.770;9.868;2023-06-14T14:27:32;3.20;;;3.00;;
5171;SDS011;2605;49.770;9.868;2023-06-14T14:29:57;3.13;;;3.03;;
5171;SDS011;2605;49.770;9.868;2023-06-14T14:32:23;3.53;;;3.23;;
5171;SDS011;2605;49.770;9.868;2023-06-14T14:34:48;3.60;;;3.30;;
5171;SDS011;2605;49.770;9.868;2023-06-14T14:37:14;3.50;;;3.30;;
5171;SDS011;2605;49.770;9.868;2023-06-14T14:39:40;3.50;;;3.23;;
5171;SDS011;2605;49.770;9.868;2023-06-14T14:42:05;2.87;;;2.67;;
5171;SDS011;2605;49.770;9.868;2023-06-14T14:44:32;3.17;;;2.97;;
5171;SDS011;2605;49.770;9.868;2023-06-14T14:46:58;3.47;;;3.10;;
5171;SDS011;2605;49.770;9.868;2023-06-14T14:49:23;3.83;;;3.50;;
5171;SDS011;2605;49.770;9.868;2023-06-14T14:51:49;3.47;;;3.17;;
5171;SDS011;2605;49.770;9.868;2023-06-14T14:54:14;3.87;;;3.57;;
5171;SDS011;2605;49.770;9.868;2023-06-14T14:56:40;4.43;;;4.20;;
5171;SDS011;2605;49.770;9.868;2023-06-14T14:59:05;4.53;;;3.78;;
5171;SDS011;2605;49.770;9.868;2023-06-14T15:01:30;3.67;;;3.58;;
5171;SDS011;2605;49.770;9.868;2023-06-14T15:03:56;4.45;;;4.15;;
5171;SDS011;2605;49.770;9.868;2023-06-14T15:06:21;4.60;;;4.18;;
5171;SDS011;2605;49.770;9.868;2023-06-14T15:08:47;5.15;;;4.60;;
5171;SDS011;2605;49.770;9.868;2023-06-14T15:11:12;4.78;;;4.57;;
5171;SDS011;2605;49.770;9.868;2023-06-14T15:13:38;4.60;;;4.40;;
5171;SDS011;2605;49.770;9.868;2023-06-14T15:16:03;3.92;;;3.72;;
5171;SDS011;2605;49.770;9.868;2023-06-14T15:18:29;4.43;;;3.88;;